Eastend, Virginia
Current Conditions -  °F | °C
As of 6:54 AM on Sunday 23 Nov 2014 (Local Time) from KRIC Reporting Station
Broken Clouds Broken Clouds  
Wind Chill: 39°   Ceiling: 25000
Heat Index: 39°   Visibility: 10mi
Dew Point: 20°   Wind: 0mph
Humidity: 46%   Direction: NA
Pressure: 30.27"   Gusts: NA
Location:  37.556°N, 77.3779°W
Report Text: KRIC 231154Z 00000KT 10SM FEW180 BKN250 04/M07 A3027 RMK AO2 SLP255 T00391067 10039 20011 55000
Loading
Personal Weather Stations






























Interactive Weather Map New forecast layout! Learn more

10-Day Weather Forecast

Advertisements
Track Severe Weather on mobile